sensor_id;sensor_type;location;lat;lon;timestamp;temperature;humidity
32877;DHT22;19226;51.600;8.034;2022-11-09T00:01:16;15.90;99.90
32877;DHT22;19226;51.600;8.034;2022-11-09T00:03:43;15.90;99.90
32877;DHT22;19226;51.600;8.034;2022-11-09T00:06:08;16.00;99.90
32877;DHT22;19226;51.600;8.034;2022-11-09T00:08:37;15.90;99.90
32877;DHT22;19226;51.600;8.034;2022-11-09T00:11:08;16.00;99.90
32877;DHT22;19226;51.600;8.034;2022-11-09T00:13:40;15.90;99.90
32877;DHT22;19226;51.600;8.034;2022-11-09T00:16:06;15.90;99.90
32877;DHT22;19226;51.600;8.034;2022-11-09T00:18:36;15.90;99.90
32877;DHT22;19226;51.600;8.034;2022-11-09T00:21:06;15.90;99.90
32877;DHT22;19226;51.600;8.034;2022-11-09T00:23:34;15.90;99.90
32877;DHT22;19226;51.600;8.034;2022-11-09T00:26:01;16.00;99.90
32877;DHT22;19226;51.600;8.034;2022-11-09T00:28:27;15.90;99.90
32877;DHT22;19226;51.600;8.034;2022-11-09T00:31:02;15.90;99.90
32877;DHT22;19226;51.600;8.034;2022-11-09T00:33:28;15.90;99.90
32877;DHT22;19226;51.600;8.034;2022-11-09T00:35:54;15.90;99.90
32877;DHT22;19226;51.600;8.034;2022-11-09T00:38:27;15.90;99.90
32877;DHT22;19226;51.600;8.034;2022-11-09T00:40:53;15.90;99.90
32877;DHT22;19226;51.600;8.034;2022-11-09T00:43:24;15.90;99.90
32877;DHT22;19226;51.600;8.034;2022-11-09T00:45:50;15.90;99.90
32877;DHT22;19226;51.600;8.034;2022-11-09T00:48:16;15.90;99.90
32877;DHT22;19226;51.600;8.034;2022-11-09T00:50:47;15.90;99.90
32877;DHT22;19226;51.600;8.034;2022-11-09T00:53:13;15.90;99.90
32877;DHT22;19226;51.600;8.034;2022-11-09T00:55:40;15.90;99.90
32877;DHT22;19226;51.600;8.034;2022-11-09T00:58:06;15.90;99.90
32877;DHT22;19226;51.600;8.034;2022-11-09T01:00:33;15.90;99.90
32877;DHT22;19226;51.600;8.034;2022-11-09T01:03:02;15.90;99.90
32877;DHT22;19226;51.600;8.034;2022-11-09T01:05:29;15.90;99.90
32877;DHT22;19226;51.600;8.034;2022-11-09T01:07:54;15.90;99.90
32877;DHT22;19226;51.600;8.034;2022-11-09T01:10:24;15.90;99.90
32877;DHT22;19226;51.600;8.034;2022-11-09T01:12:52;15.90;99.90
32877;DHT22;19226;51.600;8.034;2022-11-09T01:15:18;15.90;99.90
32877;DHT22;19226;51.600;8.034;2022-11-09T01:17:45;15.90;99.90
32877;DHT22;19226;51.600;8.034;2022-11-09T01:20:13;15.90;99.90
32877;DHT22;19226;51.600;8.034;2022-11-09T01:22:40;15.90;99.90
32877;DHT22;19226;51.600;8.034;2022-11-09T01:25:06;16.00;99.90
32877;DHT22;19226;51.600;8.034;2022-11-09T01:27:32;16.00;99.90
32877;DHT22;19226;51.600;8.034;2022-11-09T01:29:58;16.00;99.90
32877;DHT22;19226;51.600;8.034;2022-11-09T01:32:25;16.00;99.90
32877;DHT22;19226;51.600;8.034;2022-11-09T01:34:51;15.90;99.90
32877;DHT22;19226;51.600;8.034;2022-11-09T01:37:17;15.90;99.90
32877;DHT22;19226;51.600;8.034;2022-11-09T01:39:45;15.90;99.90
32877;DHT22;19226;51.600;8.034;2022-11-09T01:42:13;15.90;99.90
32877;DHT22;19226;51.600;8.034;2022-11-09T01:44:41;15.90;99.90
32877;DHT22;19226;51.600;8.034;2022-11-09T01:47:11;15.90;99.90
32877;DHT22;19226;51.600;8.034;2022-11-09T01:49:44;15.90;99.90
32877;DHT22;19226;51.600;8.034;2022-11-09T01:54:43;15.90;99.90
32877;DHT22;19226;51.600;8.034;2022-11-09T01:57:13;15.90;99.90
32877;DHT22;19226;51.600;8.034;2022-11-09T01:59:41;15.90;99.90
32877;DHT22;19226;51.600;8.034;2022-11-09T02:02:09;15.90;99.90
32877;DHT22;19226;51.600;8.034;2022-11-09T02:04:44;15.90;99.90
32877;DHT22;19226;51.600;8.034;2022-11-09T02:07:12;15.90;99.90
32877;DHT22;19226;51.600;8.034;2022-11-09T02:09:40;15.80;99.90
32877;DHT22;19226;51.600;8.034;2022-11-09T02:12:08;15.90;99.90
32877;DHT22;19226;51.600;8.034;2022-11-09T02:14:36;15.80;99.90
32877;DHT22;19226;51.600;8.034;2022-11-09T02:17:03;15.80;99.90
32877;DHT22;19226;51.600;8.034;2022-11-09T02:19:36;15.80;99.90
32877;DHT22;19226;51.600;8.034;2022-11-09T02:24:50;15.80;99.90
32877;DHT22;19226;51.600;8.034;2022-11-09T02:30:04;15.80;99.90
32877;DHT22;19226;51.600;8.034;2022-11-09T02:32:32;15.80;99.90
32877;DHT22;19226;51.600;8.034;2022-11-09T02:34:59;15.70;99.90
32877;DHT22;19226;51.600;8.034;2022-11-09T02:37:30;15.70;99.90
32877;DHT22;19226;51.600;8.034;2022-11-09T02:39:58;15.70;99.90
32877;DHT22;19226;51.600;8.034;2022-11-09T02:42:25;15.70;99.90
32877;DHT22;19226;51.600;8.034;2022-11-09T02:44:57;15.70;99.90
32877;DHT22;19226;51.600;8.034;2022-11-09T02:47:24;15.70;99.90
32877;DHT22;19226;51.600;8.034;2022-11-09T02:49:57;15.70;99.90
32877;DHT22;19226;51.600;8.034;2022-11-09T02:52:25;15.60;99.90
32877;DHT22;19226;51.600;8.034;2022-11-09T02:54:52;15.70;99.90
32877;DHT22;19226;51.600;8.034;2022-11-09T03:03:36;15.60;99.90
32877;DHT22;19226;51.600;8.034;2022-11-09T03:06:07;15.60;99.90
32877;DHT22;19226;51.600;8.034;2022-11-09T03:08:33;15.60;99.90
32877;DHT22;19226;51.600;8.034;2022-11-09T03:11:01;15.50;99.90
32877;DHT22;19226;51.600;8.034;2022-11-09T03:13:28;15.50;99.90
32877;DHT22;19226;51.600;8.034;2022-11-09T03:15:56;15.50;99.90
32877;DHT22;19226;51.600;8.034;2022-11-09T03:18:22;15.50;99.90
32877;DHT22;19226;51.600;8.034;2022-11-09T03:20:49;15.50;99.90
32877;DHT22;19226;51.600;8.034;2022-11-09T03:26:04;15.50;99.90
32877;DHT22;19226;51.600;8.034;2022-11-09T03:31:36;15.50;99.90
32877;DHT22;19226;51.600;8.034;2022-11-09T03:34:13;15.40;99.90
32877;DHT22;19226;51.600;8.034;2022-11-09T03:36:39;15.40;99.90
32877;DHT22;19226;51.600;8.034;2022-11-09T03:39:06;15.40;99.90
32877;DHT22;19226;51.600;8.034;2022-11-09T03:41:32;15.40;99.90
32877;DHT22;19226;51.600;8.034;2022-11-09T03:43:58;15.40;99.90
32877;DHT22;19226;51.600;8.034;2022-11-09T03:46:25;15.40;99.90
32877;DHT22;19226;51.600;8.034;2022-11-09T03:48:52;15.40;99.90
32877;DHT22;19226;51.600;8.034;2022-11-09T03:51:17;15.30;99.90
32877;DHT22;19226;51.600;8.034;2022-11-09T03:53:45;15.30;99.90
32877;DHT22;19226;51.600;8.034;2022-11-09T03:56:11;15.30;99.90
32877;DHT22;19226;51.600;8.034;2022-11-09T03:58:37;15.30;99.90
32877;DHT22;19226;51.600;8.034;2022-11-09T04:01:03;15.30;99.90
32877;DHT22;19226;51.600;8.034;2022-11-09T04:03:29;15.30;99.90
32877;DHT22;19226;51.600;8.034;2022-11-09T04:05:56;15.30;99.90
32877;DHT22;19226;51.600;8.034;2022-11-09T04:11:08;15.30;99.90
32877;DHT22;19226;51.600;8.034;2022-11-09T04:13:40;15.30;99.90
32877;DHT22;19226;51.600;8.034;2022-11-09T04:16:06;15.30;99.90
32877;DHT22;19226;51.600;8.034;2022-11-09T04:18:32;15.30;99.90
32877;DHT22;19226;51.600;8.034;2022-11-09T04:20:58;15.30;99.90
32877;DHT22;19226;51.600;8.034;2022-11-09T04:23:24;15.30;99.90
32877;DHT22;19226;51.600;8.034;2022-11-09T04:25:53;15.30;99.90
32877;DHT22;19226;51.600;8.034;2022-11-09T04:28:22;15.30;99.90
32877;DHT22;19226;51.600;8.034;2022-11-09T04:30:48;15.30;99.90
32877;DHT22;19226;51.600;8.034;2022-11-09T04:33:14;15.30;99.90
32877;DHT22;19226;51.600;8.034;2022-11-09T04:36:05;15.30;99.90
32877;DHT22;19226;51.600;8.034;2022-11-09T04:38:32;15.30;99.90
32877;DHT22;19226;51.600;8.034;2022-11-09T04:41:02;15.30;99.90
32877;DHT22;19226;51.600;8.034;2022-11-09T04:43:28;15.30;99.90
32877;DHT22;19226;51.600;8.034;2022-11-09T04:45:57;15.30;99.90
32877;DHT22;19226;51.600;8.034;2022-11-09T04:48:24;15.30;99.90
32877;DHT22;19226;51.600;8.034;2022-11-09T04:50:50;15.30;99.90
32877;DHT22;19226;51.600;8.034;2022-11-09T04:53:19;15.30;99.90
32877;DHT22;19226;51.600;8.034;2022-11-09T04:55:46;15.30;99.90
32877;DHT22;19226;51.600;8.034;2022-11-09T04:58:12;15.30;99.90
32877;DHT22;19226;51.600;8.034;2022-11-09T05:00:39;15.30;99.90
32877;DHT22;19226;51.600;8.034;2022-11-09T05:03:05;15.30;99.90
32877;DHT22;19226;51.600;8.034;2022-11-09T05:05:34;15.30;99.90
32877;DHT22;19226;51.600;8.034;2022-11-09T05:08:01;15.30;99.90
32877;DHT22;19226;51.600;8.034;2022-11-09T05:10:27;15.30;99.90
32877;DHT22;19226;51.600;8.034;2022-11-09T05:13:00;15.20;99.90
32877;DHT22;19226;51.600;8.034;2022-11-09T05:15:26;15.20;99.90
32877;DHT22;19226;51.600;8.034;2022-11-09T05:17:52;15.10;99.90
32877;DHT22;19226;51.600;8.034;2022-11-09T05:20:18;15.10;99.90
32877;DHT22;19226;51.600;8.034;2022-11-09T05:22:45;15.10;99.90
32877;DHT22;19226;51.600;8.034;2022-11-09T05:25:29;15.10;99.90
32877;DHT22;19226;51.600;8.034;2022-11-09T05:27:55;15.10;99.90
32877;DHT22;19226;51.600;8.034;2022-11-09T05:30:21;15.10;99.90
32877;DHT22;19226;51.600;8.034;2022-11-09T05:32:48;15.10;99.90
32877;DHT22;19226;51.600;8.034;2022-11-09T05:35:14;15.10;99.90
32877;DHT22;19226;51.600;8.034;2022-11-09T05:37:41;15.10;99.90
32877;DHT22;19226;51.600;8.034;2022-11-09T05:40:10;15.10;99.90
32877;DHT22;19226;51.600;8.034;2022-11-09T05:42:37;15.10;99.90
32877;DHT22;19226;51.600;8.034;2022-11-09T05:45:03;15.10;99.90
32877;DHT22;19226;51.600;8.034;2022-11-09T05:47:35;15.10;99.90
32877;DHT22;19226;51.600;8.034;2022-11-09T05:50:01;15.10;99.90
32877;DHT22;19226;51.600;8.034;2022-11-09T05:52:27;15.10;99.90
32877;DHT22;19226;51.600;8.034;2022-11-09T05:54:53;15.10;99.90
32877;DHT22;19226;51.600;8.034;2022-11-09T05:57:20;15.10;99.90
32877;DHT22;19226;51.600;8.034;2022-11-09T05:59:46;15.10;99.90
32877;DHT22;19226;51.600;8.034;2022-11-09T06:02:13;15.10;99.90
32877;DHT22;19226;51.600;8.034;2022-11-09T06:04:38;15.10;99.90
32877;DHT22;19226;51.600;8.034;2022-11-09T06:07:05;15.10;99.90
32877;DHT22;19226;51.600;8.034;2022-11-09T06:09:31;15.10;99.90
32877;DHT22;19226;51.600;8.034;2022-11-09T06:11:58;15.10;99.90
32877;DHT22;19226;51.600;8.034;2022-11-09T06:14:33;15.10;99.90
32877;DHT22;19226;51.600;8.034;2022-11-09T06:16:59;15.00;99.90
32877;DHT22;19226;51.600;8.034;2022-11-09T06:19:25;15.00;99.90
32877;DHT22;19226;51.600;8.034;2022-11-09T06:21:51;15.00;99.90
32877;DHT22;19226;51.600;8.034;2022-11-09T06:24:17;15.00;99.90
32877;DHT22;19226;51.600;8.034;2022-11-09T06:26:43;15.00;99.90
32877;DHT22;19226;51.600;8.034;2022-11-09T06:29:09;15.10;99.90
32877;DHT22;19226;51.600;8.034;2022-11-09T06:31:41;15.10;99.90
32877;DHT22;19226;51.600;8.034;2022-11-09T06:34:08;15.10;99.90
32877;DHT22;19226;51.600;8.034;2022-11-09T06:36:34;15.10;99.90
32877;DHT22;19226;51.600;8.034;2022-11-09T06:39:01;15.10;99.90
32877;DHT22;19226;51.600;8.034;2022-11-09T06:41:27;15.10;99.90
32877;DHT22;19226;51.600;8.034;2022-11-09T06:43:54;15.10;99.90
32877;DHT22;19226;51.600;8.034;2022-11-09T06:46:20;15.10;99.90
32877;DHT22;19226;51.600;8.034;2022-11-09T06:48:47;15.10;99.90
32877;DHT22;19226;51.600;8.034;2022-11-09T06:51:13;15.10;99.90
32877;DHT22;19226;51.600;8.034;2022-11-09T06:53:41;15.00;99.90
32877;DHT22;19226;51.600;8.034;2022-11-09T06:56:06;15.10;99.90
32877;DHT22;19226;51.600;8.034;2022-11-09T06:58:34;15.00;99.90
32877;DHT22;19226;51.600;8.034;2022-11-09T07:01:05;15.00;99.90
32877;DHT22;19226;51.600;8.034;2022-11-09T07:03:32;15.00;99.90
32877;DHT22;19226;51.600;8.034;2022-11-09T07:05:58;14.90;99.90
32877;DHT22;19226;51.600;8.034;2022-11-09T07:08:28;14.90;99.90
32877;DHT22;19226;51.600;8.034;2022-11-09T07:10:54;14.90;99.90
32877;DHT22;19226;51.600;8.034;2022-11-09T07:13:21;14.90;99.90
32877;DHT22;19226;51.600;8.034;2022-11-09T07:15:51;14.80;99.90
32877;DHT22;19226;51.600;8.034;2022-11-09T07:18:17;14.80;99.90
32877;DHT22;19226;51.600;8.034;2022-11-09T07:20:43;14.80;99.90
32877;DHT22;19226;51.600;8.034;2022-11-09T07:23:09;14.70;99.90
32877;DHT22;19226;51.600;8.034;2022-11-09T07:28:22;14.70;99.90
32877;DHT22;19226;51.600;8.034;2022-11-09T07:30:49;14.60;99.90
32877;DHT22;19226;51.600;8.034;2022-11-09T07:33:18;14.60;99.90
32877;DHT22;19226;51.600;8.034;2022-11-09T07:35:44;14.60;99.90
32877;DHT22;19226;51.600;8.034;2022-11-09T07:38:12;14.60;99.90
32877;DHT22;19226;51.600;8.034;2022-11-09T07:40:38;14.60;99.90
32877;DHT22;19226;51.600;8.034;2022-11-09T07:43:05;14.50;99.90
32877;DHT22;19226;51.600;8.034;2022-11-09T07:48:36;14.50;99.90
32877;DHT22;19226;51.600;8.034;2022-11-09T07:53:50;14.40;99.90
32877;DHT22;19226;51.600;8.034;2022-11-09T07:56:19;14.30;99.90
32877;DHT22;19226;51.600;8.034;2022-11-09T07:58:48;14.30;99.90
32877;DHT22;19226;51.600;8.034;2022-11-09T08:01:15;14.20;99.90
32877;DHT22;19226;51.600;8.034;2022-11-09T08:03:41;14.20;99.90
32877;DHT22;19226;51.600;8.034;2022-11-09T08:06:09;14.20;99.90
32877;DHT22;19226;51.600;8.034;2022-11-09T08:08:35;14.10;99.90
32877;DHT22;19226;51.600;8.034;2022-11-09T08:11:01;14.00;99.90
32877;DHT22;19226;51.600;8.034;2022-11-09T08:13:28;14.00;99.90
32877;DHT22;19226;51.600;8.034;2022-11-09T08:15:54;14.00;99.90
32877;DHT22;19226;51.600;8.034;2022-11-09T08:18:21;14.00;99.90
32877;DHT22;19226;51.600;8.034;2022-11-09T08:20:47;14.00;99.90
32877;DHT22;19226;51.600;8.034;2022-11-09T08:26:01;13.90;99.90
32877;DHT22;19226;51.600;8.034;2022-11-09T08:28:30;13.90;99.90
32877;DHT22;19226;51.600;8.034;2022-11-09T08:30:57;13.90;99.90
32877;DHT22;19226;51.600;8.034;2022-11-09T08:33:24;13.90;99.90
32877;DHT22;19226;51.600;8.034;2022-11-09T08:35:50;13.90;99.90
32877;DHT22;19226;51.600;8.034;2022-11-09T08:38:16;13.90;99.90
32877;DHT22;19226;51.600;8.034;2022-11-09T08:40:42;13.90;99.90
32877;DHT22;19226;51.600;8.034;2022-11-09T08:43:09;13.90;99.90
32877;DHT22;19226;51.600;8.034;2022-11-09T08:45:36;13.90;99.90
32877;DHT22;19226;51.600;8.034;2022-11-09T08:48:03;13.90;99.90
32877;DHT22;19226;51.600;8.034;2022-11-09T08:50:30;14.00;99.90
32877;DHT22;19226;51.600;8.034;2022-11-09T08:52:57;14.00;99.90
32877;DHT22;19226;51.600;8.034;2022-11-09T08:55:24;14.10;99.90
32877;DHT22;19226;51.600;8.034;2022-11-09T08:57:55;14.10;99.90
32877;DHT22;19226;51.600;8.034;2022-11-09T09:00:22;14.10;99.90
32877;DHT22;19226;51.600;8.034;2022-11-09T09:02:49;14.10;99.90
32877;DHT22;19226;51.600;8.034;2022-11-09T09:05:15;14.20;99.90
32877;DHT22;19226;51.600;8.034;2022-11-09T09:07:42;14.20;99.90
32877;DHT22;19226;51.600;8.034;2022-11-09T09:10:07;14.20;99.90
32877;DHT22;19226;51.600;8.034;2022-11-09T09:12:34;14.30;99.90
32877;DHT22;19226;51.600;8.034;2022-11-09T09:15:00;14.30;99.90
32877;DHT22;19226;51.600;8.034;2022-11-09T09:17:26;14.30;99.90
32877;DHT22;19226;51.600;8.034;2022-11-09T09:19:52;14.30;99.90
32877;DHT22;19226;51.600;8.034;2022-11-09T09:24:58;14.40;99.90
32877;DHT22;19226;51.600;8.034;2022-11-09T09:27:24;14.60;99.90
32877;DHT22;19226;51.600;8.034;2022-11-09T09:29:50;14.60;99.90
32877;DHT22;19226;51.600;8.034;2022-11-09T09:35:04;14.80;99.90
32877;DHT22;19226;51.600;8.034;2022-11-09T09:37:46;14.80;99.90
32877;DHT22;19226;51.600;8.034;2022-11-09T09:40:35;15.00;99.90
32877;DHT22;19226;51.600;8.034;2022-11-09T09:42:59;15.10;99.90
32877;DHT22;19226;51.600;8.034;2022-11-09T09:45:27;15.20;99.90
32877;DHT22;19226;51.600;8.034;2022-11-09T09:50:59;15.40;99.90
32877;DHT22;19226;51.600;8.034;2022-11-09T09:54:02;15.60;99.90
32877;DHT22;19226;51.600;8.034;2022-11-09T09:56:33;15.60;99.90
32877;DHT22;19226;51.600;8.034;2022-11-09T10:01:39;15.80;99.90
32877;DHT22;19226;51.600;8.034;2022-11-09T10:04:15;15.90;99.90
32877;DHT22;19226;51.600;8.034;2022-11-09T10:06:45;16.00;99.90
32877;DHT22;19226;51.600;8.034;2022-11-09T10:11:43;16.20;99.90
32877;DHT22;19226;51.600;8.034;2022-11-09T10:19:34;16.60;99.90
32877;DHT22;19226;51.600;8.034;2022-11-09T10:22:07;16.80;99.90
32877;DHT22;19226;51.600;8.034;2022-11-09T10:24:48;16.80;99.90
32877;DHT22;19226;51.600;8.034;2022-11-09T10:27:39;16.90;99.90
32877;DHT22;19226;51.600;8.034;2022-11-09T10:30:11;17.00;99.90
32877;DHT22;19226;51.600;8.034;2022-11-09T10:35:14;16.90;99.90
32877;DHT22;19226;51.600;8.034;2022-11-09T10:37:43;16.80;99.90
32877;DHT22;19226;51.600;8.034;2022-11-09T10:43:12;16.80;99.90
32877;DHT22;19226;51.600;8.034;2022-11-09T10:46:04;16.80;99.90
32877;DHT22;19226;51.600;8.034;2022-11-09T10:48:49;16.80;99.90
32877;DHT22;19226;51.600;8.034;2022-11-09T10:51:37;16.90;99.90
32877;DHT22;19226;51.600;8.034;2022-11-09T10:54:35;16.90;99.90
32877;DHT22;19226;51.600;8.034;2022-11-09T10:57:22;17.00;99.90
32877;DHT22;19226;51.600;8.034;2022-11-09T11:00:15;17.00;99.90
32877;DHT22;19226;51.600;8.034;2022-11-09T11:03:16;17.00;99.90
32877;DHT22;19226;51.600;8.034;2022-11-09T11:06:05;17.00;99.90
32877;DHT22;19226;51.600;8.034;2022-11-09T11:08:51;17.00;99.90
32877;DHT22;19226;51.600;8.034;2022-11-09T11:11:37;17.10;99.90
32877;DHT22;19226;51.600;8.034;2022-11-09T11:14:26;17.20;99.90
32877;DHT22;19226;51.600;8.034;2022-11-09T11:17:22;17.30;99.90
32877;DHT22;19226;51.600;8.034;2022-11-09T11:23:29;17.20;99.90
32877;DHT22;19226;51.600;8.034;2022-11-09T11:29:19;17.20;99.90
32877;DHT22;19226;51.600;8.034;2022-11-09T11:32:13;17.20;99.90
32877;DHT22;19226;51.600;8.034;2022-11-09T11:34:58;17.20;99.90
32877;DHT22;19226;51.600;8.034;2022-11-09T11:37:52;17.10;99.90
32877;DHT22;19226;51.600;8.034;2022-11-09T11:40:44;17.20;99.90
32877;DHT22;19226;51.600;8.034;2022-11-09T11:43:34;17.20;99.90
32877;DHT22;19226;51.600;8.034;2022-11-09T12:15:57;16.90;99.90
32877;DHT22;19226;51.600;8.034;2022-11-09T12:21:45;16.90;99.90
32877;DHT22;19226;51.600;8.034;2022-11-09T12:25:33;16.90;99.90
32877;DHT22;19226;51.600;8.034;2022-11-09T12:33:41;17.00;99.90
32877;DHT22;19226;51.600;8.034;2022-11-09T12:36:41;16.90;99.90
32877;DHT22;19226;51.600;8.034;2022-11-09T12:39:31;16.90;99.90
32877;DHT22;19226;51.600;8.034;2022-11-09T12:42:31;17.00;99.90
32877;DHT22;19226;51.600;8.034;2022-11-09T12:48:19;17.10;99.90
32877;DHT22;19226;51.600;8.034;2022-11-09T12:51:04;17.20;99.90
32877;DHT22;19226;51.600;8.034;2022-11-09T12:53:50;17.30;99.90
32877;DHT22;19226;51.600;8.034;2022-11-09T12:56:36;17.30;99.90
32877;DHT22;19226;51.600;8.034;2022-11-09T13:02:23;17.50;99.90
32877;DHT22;19226;51.600;8.034;2022-11-09T13:06:07;17.40;99.90
32877;DHT22;19226;51.600;8.034;2022-11-09T13:08:16;17.40;99.90
32877;DHT22;19226;51.600;8.034;2022-11-09T13:11:36;17.50;99.90
32877;DHT22;19226;51.600;8.034;2022-11-09T13:27:29;17.40;99.90
32877;DHT22;19226;51.600;8.034;2022-11-09T13:29:24;17.40;99.90
32877;DHT22;19226;51.600;8.034;2022-11-09T13:46:03;16.90;99.90
32877;DHT22;19226;51.600;8.034;2022-11-09T13:48:49;16.90;99.90
32877;DHT22;19226;51.600;8.034;2022-11-09T13:58:26;16.70;99.90
32877;DHT22;19226;51.600;8.034;2022-11-09T14:01:24;16.70;99.90
32877;DHT22;19226;51.600;8.034;2022-11-09T14:07:25;16.50;99.90
32877;DHT22;19226;51.600;8.034;2022-11-09T14:13:04;16.50;99.90
32877;DHT22;19226;51.600;8.034;2022-11-09T14:16:03;16.50;99.90
32877;DHT22;19226;51.600;8.034;2022-11-09T14:21:56;16.50;99.90
32877;DHT22;19226;51.600;8.034;2022-11-09T14:27:47;16.40;99.90
32877;DHT22;19226;51.600;8.034;2022-11-09T14:30:44;16.50;99.90
32877;DHT22;19226;51.600;8.034;2022-11-09T14:33:29;16.40;99.90
32877;DHT22;19226;51.600;8.034;2022-11-09T14:36:17;16.40;99.90
32877;DHT22;19226;51.600;8.034;2022-11-09T14:39:02;16.40;99.90
32877;DHT22;19226;51.600;8.034;2022-11-09T14:41:49;16.40;99.90
32877;DHT22;19226;51.600;8.034;2022-11-09T14:44:35;16.40;99.90
32877;DHT22;19226;51.600;8.034;2022-11-09T14:47:33;16.40;99.90
32877;DHT22;19226;51.600;8.034;2022-11-09T14:50:30;16.20;99.90
32877;DHT22;19226;51.600;8.034;2022-11-09T14:53:19;16.20;99.90
32877;DHT22;19226;51.600;8.034;2022-11-09T14:56:06;16.20;99.90
32877;DHT22;19226;51.600;8.034;2022-11-09T14:59:05;16.10;99.90
32877;DHT22;19226;51.600;8.034;2022-11-09T15:02:00;16.10;99.90
32877;DHT22;19226;51.600;8.034;2022-11-09T15:04:59;16.00;99.90
32877;DHT22;19226;51.600;8.034;2022-11-09T15:07:45;16.00;99.90
32877;DHT22;19226;51.600;8.034;2022-11-09T15:10:31;15.90;99.90
32877;DHT22;19226;51.600;8.034;2022-11-09T15:16:28;15.90;99.90
32877;DHT22;19226;51.600;8.034;2022-11-09T15:19:23;15.80;99.90
32877;DHT22;19226;51.600;8.034;2022-11-09T15:22:33;15.70;99.90
32877;DHT22;19226;51.600;8.034;2022-11-09T15:25:23;15.70;99.90
32877;DHT22;19226;51.600;8.034;2022-11-09T15:33:49;15.60;99.90
32877;DHT22;19226;51.600;8.034;2022-11-09T15:36:35;15.60;99.90
32877;DHT22;19226;51.600;8.034;2022-11-09T15:39:21;15.50;99.90
32877;DHT22;19226;51.600;8.034;2022-11-09T15:42:08;15.50;99.90
32877;DHT22;19226;51.600;8.034;2022-11-09T15:47:56;15.50;99.90
32877;DHT22;19226;51.600;8.034;2022-11-09T15:50:42;15.40;99.90
32877;DHT22;19226;51.600;8.034;2022-11-09T15:53:27;15.40;99.90
32877;DHT22;19226;51.600;8.034;2022-11-09T15:56:13;15.40;99.90
32877;DHT22;19226;51.600;8.034;2022-11-09T15:58:58;15.30;99.90
32877;DHT22;19226;51.600;8.034;2022-11-09T16:01:43;15.30;99.90
32877;DHT22;19226;51.600;8.034;2022-11-09T16:04:28;15.30;99.90
32877;DHT22;19226;51.600;8.034;2022-11-09T16:07:18;15.30;99.90
32877;DHT22;19226;51.600;8.034;2022-11-09T16:10:02;15.30;99.90
32877;DHT22;19226;51.600;8.034;2022-11-09T16:12:50;15.20;99.90
32877;DHT22;19226;51.600;8.034;2022-11-09T16:15:36;15.20;99.90
32877;DHT22;19226;51.600;8.034;2022-11-09T16:18:29;15.10;99.90
32877;DHT22;19226;51.600;8.034;2022-11-09T16:21:16;15.00;99.90
32877;DHT22;19226;51.600;8.034;2022-11-09T16:24:00;15.00;99.90
32877;DHT22;19226;51.600;8.034;2022-11-09T16:26:45;15.00;99.90
32877;DHT22;19226;51.600;8.034;2022-11-09T16:29:29;15.00;99.90
32877;DHT22;19226;51.600;8.034;2022-11-09T16:32:17;14.90;99.90
32877;DHT22;19226;51.600;8.034;2022-11-09T16:35:04;14.90;99.90
32877;DHT22;19226;51.600;8.034;2022-11-09T16:37:49;14.90;99.90
32877;DHT22;19226;51.600;8.034;2022-11-09T16:40:38;14.90;99.90
32877;DHT22;19226;51.600;8.034;2022-11-09T16:43:23;14.90;99.90
32877;DHT22;19226;51.600;8.034;2022-11-09T16:46:09;14.90;99.90
32877;DHT22;19226;51.600;8.034;2022-11-09T16:48:55;14.80;99.90
32877;DHT22;19226;51.600;8.034;2022-11-09T16:51:41;14.80;99.90
32877;DHT22;19226;51.600;8.034;2022-11-09T16:54:29;14.80;99.90
32877;DHT22;19226;51.600;8.034;2022-11-09T16:57:13;14.80;99.90
32877;DHT22;19226;51.600;8.034;2022-11-09T16:59:58;14.80;99.90
32877;DHT22;19226;51.600;8.034;2022-11-09T17:02:43;14.70;99.90
32877;DHT22;19226;51.600;8.034;2022-11-09T17:08:34;14.60;99.90
32877;DHT22;19226;51.600;8.034;2022-11-09T17:11:20;14.50;99.90
32877;DHT22;19226;51.600;8.034;2022-11-09T17:14:06;14.50;99.90
32877;DHT22;19226;51.600;8.034;2022-11-09T17:16:51;14.40;99.90
32877;DHT22;19226;51.600;8.034;2022-11-09T17:19:36;14.40;99.90
32877;DHT22;19226;51.600;8.034;2022-11-09T17:22:21;14.30;99.90
32877;DHT22;19226;51.600;8.034;2022-11-09T17:25:06;14.30;99.90
32877;DHT22;19226;51.600;8.034;2022-11-09T17:27:51;14.20;99.90
32877;DHT22;19226;51.600;8.034;2022-11-09T17:30:35;14.20;99.90
32877;DHT22;19226;51.600;8.034;2022-11-09T17:33:23;14.20;99.90
32877;DHT22;19226;51.600;8.034;2022-11-09T17:36:11;14.10;99.90
32877;DHT22;19226;51.600;8.034;2022-11-09T17:38:57;14.10;99.90
32877;DHT22;19226;51.600;8.034;2022-11-09T17:41:50;14.10;99.90
32877;DHT22;19226;51.600;8.034;2022-11-09T17:44:35;14.00;99.90
32877;DHT22;19226;51.600;8.034;2022-11-09T17:47:20;14.00;99.90
32877;DHT22;19226;51.600;8.034;2022-11-09T17:50:05;14.00;99.90
32877;DHT22;19226;51.600;8.034;2022-11-09T17:52:52;13.90;99.90
32877;DHT22;19226;51.600;8.034;2022-11-09T17:55:37;13.90;99.90
32877;DHT22;19226;51.600;8.034;2022-11-09T17:58:22;13.90;99.90
32877;DHT22;19226;51.600;8.034;2022-11-09T18:01:07;13.90;99.90
32877;DHT22;19226;51.600;8.034;2022-11-09T18:03:52;13.90;99.90
32877;DHT22;19226;51.600;8.034;2022-11-09T18:06:36;13.80;99.90
32877;DHT22;19226;51.600;8.034;2022-11-09T18:09:25;13.80;99.90
32877;DHT22;19226;51.600;8.034;2022-11-09T18:12:10;13.70;99.90
32877;DHT22;19226;51.600;8.034;2022-11-09T18:14:54;13.70;99.90
32877;DHT22;19226;51.600;8.034;2022-11-09T18:17:38;13.70;99.90
32877;DHT22;19226;51.600;8.034;2022-11-09T18:20:23;13.60;99.90
32877;DHT22;19226;51.600;8.034;2022-11-09T18:26:11;13.60;99.90
32877;DHT22;19226;51.600;8.034;2022-11-09T18:28:57;13.50;99.90
32877;DHT22;19226;51.600;8.034;2022-11-09T18:31:42;13.50;99.90
32877;DHT22;19226;51.600;8.034;2022-11-09T18:34:28;13.40;99.90
32877;DHT22;19226;51.600;8.034;2022-11-09T18:37:14;13.40;99.90
32877;DHT22;19226;51.600;8.034;2022-11-09T18:39:59;13.40;99.90
32877;DHT22;19226;51.600;8.034;2022-11-09T18:42:44;13.30;99.90
32877;DHT22;19226;51.600;8.034;2022-11-09T18:45:31;13.40;99.90
32877;DHT22;19226;51.600;8.034;2022-11-09T18:48:25;13.40;99.90
32877;DHT22;19226;51.600;8.034;2022-11-09T18:51:10;13.40;99.90
32877;DHT22;19226;51.600;8.034;2022-11-09T18:53:54;13.30;99.90
32877;DHT22;19226;51.600;8.034;2022-11-09T18:56:39;13.30;99.90
32877;DHT22;19226;51.600;8.034;2022-11-09T18:59:24;13.30;99.90
32877;DHT22;19226;51.600;8.034;2022-11-09T19:02:13;13.30;99.90
32877;DHT22;19226;51.600;8.034;2022-11-09T19:05:16;13.30;99.90
32877;DHT22;19226;51.600;8.034;2022-11-09T19:08:04;13.30;99.90
32877;DHT22;19226;51.600;8.034;2022-11-09T19:10:48;13.30;99.90
32877;DHT22;19226;51.600;8.034;2022-11-09T19:13:33;13.30;99.90
32877;DHT22;19226;51.600;8.034;2022-11-09T19:16:17;13.30;99.90